sensor_id;sensor_type;location;lat;lon;timestamp;pressure;altitude;pressure_sealevel;temperature;humidity
74372;BME280;62885;51.374;6.170;2023-05-24T00:02:06;102052.94;;;9.07;77.00
74372;BME280;62885;51.374;6.170;2023-05-24T00:04:32;102054.13;;;9.01;77.61
74372;BME280;62885;51.374;6.170;2023-05-24T00:06:58;102056.03;;;8.98;77.63
74372;BME280;62885;51.374;6.170;2023-05-24T00:09:30;102061.69;;;8.92;78.13
74372;BME280;62885;51.374;6.170;2023-05-24T00:11:55;102066.66;;;8.81;79.04
74372;BME280;62885;51.374;6.170;2023-05-24T00:14:21;102061.19;;;8.84;78.88
74372;BME280;62885;51.374;6.170;2023-05-24T00:16:46;102052.44;;;8.80;79.14
74372;BME280;62885;51.374;6.170;2023-05-24T00:19:12;102055.22;;;8.79;79.44
74372;BME280;62885;51.374;6.170;2023-05-24T00:21:43;102051.88;;;8.55;80.48
74372;BME280;62885;51.374;6.170;2023-05-24T00:24:08;102046.97;;;8.64;80.10
74372;BME280;62885;51.374;6.170;2023-05-24T00:26:35;102043.31;;;8.67;80.54
74372;BME280;62885;51.374;6.170;2023-05-24T00:29:01;102044.59;;;8.77;80.51
74372;BME280;62885;51.374;6.170;2023-05-24T00:31:26;102044.25;;;8.85;79.80
74372;BME280;62885;51.374;6.170;2023-05-24T00:33:51;102046.09;;;8.83;80.08
74372;BME280;62885;51.374;6.170;2023-05-24T00:36:17;102039.59;;;8.88;80.29
74372;BME280;62885;51.374;6.170;2023-05-24T00:38:42;102039.53;;;8.90;79.13
74372;BME280;62885;51.374;6.170;2023-05-24T00:41:07;102034.72;;;8.79;79.88
74372;BME280;62885;51.374;6.170;2023-05-24T00:43:33;102029.72;;;8.53;81.87
74372;BME280;62885;51.374;6.170;2023-05-24T00:46:18;102040.38;;;8.53;81.78
74372;BME280;62885;51.374;6.170;2023-05-24T00:48:49;102037.66;;;8.54;81.64
74372;BME280;62885;51.374;6.170;2023-05-24T00:51:15;102028.34;;;8.44;81.75
74372;BME280;62885;51.374;6.170;2023-05-24T00:53:43;102028.47;;;8.41;82.55
74372;BME280;62885;51.374;6.170;2023-05-24T00:56:10;102032.34;;;8.34;82.66
74372;BME280;62885;51.374;6.170;2023-05-24T00:58:37;102028.63;;;8.38;83.28
74372;BME280;62885;51.374;6.170;2023-05-24T01:01:02;102035.28;;;8.28;83.69
74372;BME280;62885;51.374;6.170;2023-05-24T01:03:28;102033.16;;;8.36;83.07
74372;BME280;62885;51.374;6.170;2023-05-24T01:05:55;102027.94;;;8.33;83.74
74372;BME280;62885;51.374;6.170;2023-05-24T01:11:42;102020.19;;;8.47;83.20
74372;BME280;62885;51.374;6.170;2023-05-24T01:14:40;102015.78;;;8.46;83.25
74372;BME280;62885;51.374;6.170;2023-05-24T01:17:14;102020.75;;;8.35;83.46
74372;BME280;62885;51.374;6.170;2023-05-24T01:20:04;102015.84;;;8.45;83.93
74372;BME280;62885;51.374;6.170;2023-05-24T01:26:01;102023.56;;;8.51;83.81
74372;BME280;62885;51.374;6.170;2023-05-24T01:28:28;102021.06;;;8.48;83.11
74372;BME280;62885;51.374;6.170;2023-05-24T01:30:55;102026.31;;;8.31;83.82
74372;BME280;62885;51.374;6.170;2023-05-24T01:33:21;102018.09;;;8.35;83.69
74372;BME280;62885;51.374;6.170;2023-05-24T01:35:47;102022.06;;;8.45;83.74
74372;BME280;62885;51.374;6.170;2023-05-24T01:38:12;102015.00;;;8.44;83.52
74372;BME280;62885;51.374;6.170;2023-05-24T01:40:39;102010.50;;;8.45;84.46
74372;BME280;62885;51.374;6.170;2023-05-24T01:43:15;102005.16;;;8.45;84.47
74372;BME280;62885;51.374;6.170;2023-05-24T01:48:42;102001.94;;;8.38;84.26
74372;BME280;62885;51.374;6.170;2023-05-24T01:51:16;102003.00;;;8.34;85.20
74372;BME280;62885;51.374;6.170;2023-05-24T01:53:44;102005.28;;;8.43;84.74
74372;BME280;62885;51.374;6.170;2023-05-24T01:56:15;102000.94;;;8.41;84.93
74372;BME280;62885;51.374;6.170;2023-05-24T01:58:43;102005.56;;;8.37;86.14
74372;BME280;62885;51.374;6.170;2023-05-24T02:01:10;101996.81;;;8.34;86.88
74372;BME280;62885;51.374;6.170;2023-05-24T02:03:35;102003.16;;;8.31;86.56
74372;BME280;62885;51.374;6.170;2023-05-24T02:06:04;101996.09;;;8.30;87.55
74372;BME280;62885;51.374;6.170;2023-05-24T02:08:30;101993.44;;;8.29;88.45
74372;BME280;62885;51.374;6.170;2023-05-24T02:10:55;101989.66;;;8.34;87.84
74372;BME280;62885;51.374;6.170;2023-05-24T02:13:21;101991.41;;;8.35;88.08
74372;BME280;62885;51.374;6.170;2023-05-24T02:15:46;101987.00;;;8.34;88.12
74372;BME280;62885;51.374;6.170;2023-05-24T02:18:12;101990.53;;;8.35;87.77
74372;BME280;62885;51.374;6.170;2023-05-24T02:20:38;102001.38;;;8.32;88.67
74372;BME280;62885;51.374;6.170;2023-05-24T02:23:03;101999.81;;;8.26;88.53
74372;BME280;62885;51.374;6.170;2023-05-24T02:25:29;102002.47;;;8.26;89.05
74372;BME280;62885;51.374;6.170;2023-05-24T02:27:56;101999.94;;;8.23;89.03
74372;BME280;62885;51.374;6.170;2023-05-24T02:30:21;101997.19;;;8.24;88.54
74372;BME280;62885;51.374;6.170;2023-05-24T02:32:47;101995.41;;;8.25;88.44
74372;BME280;62885;51.374;6.170;2023-05-24T02:35:12;102002.31;;;8.29;88.01
74372;BME280;62885;51.374;6.170;2023-05-24T02:37:37;102001.44;;;8.29;87.48
74372;BME280;62885;51.374;6.170;2023-05-24T02:40:03;102007.00;;;8.24;87.74
74372;BME280;62885;51.374;6.170;2023-05-24T02:42:29;102007.06;;;8.22;86.84
74372;BME280;62885;51.374;6.170;2023-05-24T02:44:54;102008.28;;;8.15;87.88
74372;BME280;62885;51.374;6.170;2023-05-24T02:47:20;102007.63;;;8.10;87.21
74372;BME280;62885;51.374;6.170;2023-05-24T02:49:45;102008.75;;;8.05;87.89
74372;BME280;62885;51.374;6.170;2023-05-24T02:52:10;102004.44;;;8.02;88.03
74372;BME280;62885;51.374;6.170;2023-05-24T02:54:37;102008.03;;;8.01;88.36
74372;BME280;62885;51.374;6.170;2023-05-24T02:57:03;102003.84;;;7.96;88.48
74372;BME280;62885;51.374;6.170;2023-05-24T02:59:30;102010.38;;;7.89;88.19
74372;BME280;62885;51.374;6.170;2023-05-24T03:01:56;102013.91;;;7.89;88.04
74372;BME280;62885;51.374;6.170;2023-05-24T03:04:21;102008.75;;;7.86;88.65
74372;BME280;62885;51.374;6.170;2023-05-24T03:06:46;102011.47;;;7.84;89.11
74372;BME280;62885;51.374;6.170;2023-05-24T03:09:12;102008.03;;;7.81;89.61
74372;BME280;62885;51.374;6.170;2023-05-24T03:11:38;102005.72;;;7.73;89.52
74372;BME280;62885;51.374;6.170;2023-05-24T03:14:03;102010.84;;;7.78;89.99
74372;BME280;62885;51.374;6.170;2023-05-24T03:16:30;102015.59;;;7.71;90.06
74372;BME280;62885;51.374;6.170;2023-05-24T03:18:56;102004.09;;;7.69;91.17
74372;BME280;62885;51.374;6.170;2023-05-24T03:21:21;102007.75;;;7.68;90.93
74372;BME280;62885;51.374;6.170;2023-05-24T03:23:47;102005.91;;;7.69;90.94
74372;BME280;62885;51.374;6.170;2023-05-24T03:26:13;102000.50;;;7.70;91.20
74372;BME280;62885;51.374;6.170;2023-05-24T03:28:39;102002.25;;;7.71;91.87
74372;BME280;62885;51.374;6.170;2023-05-24T03:31:05;102000.94;;;7.61;92.03
74372;BME280;62885;51.374;6.170;2023-05-24T03:33:30;102011.59;;;7.61;92.77
74372;BME280;62885;51.374;6.170;2023-05-24T03:35:56;102002.56;;;7.64;92.21
74372;BME280;62885;51.374;6.170;2023-05-24T03:38:21;102008.94;;;7.61;91.88
74372;BME280;62885;51.374;6.170;2023-05-24T03:40:47;102001.97;;;7.57;91.88
74372;BME280;62885;51.374;6.170;2023-05-24T03:43:12;102010.41;;;7.68;91.10
74372;BME280;62885;51.374;6.170;2023-05-24T03:45:37;102001.31;;;7.72;90.33
74372;BME280;62885;51.374;6.170;2023-05-24T03:48:03;102016.44;;;7.72;90.40
74372;BME280;62885;51.374;6.170;2023-05-24T03:50:28;102021.63;;;7.75;89.81
74372;BME280;62885;51.374;6.170;2023-05-24T03:52:53;102016.31;;;7.75;90.08
74372;BME280;62885;51.374;6.170;2023-05-24T03:55:19;102011.19;;;7.70;90.13
74372;BME280;62885;51.374;6.170;2023-05-24T03:57:45;102020.03;;;7.71;90.23
74372;BME280;62885;51.374;6.170;2023-05-24T04:00:11;102024.50;;;7.70;90.08
74372;BME280;62885;51.374;6.170;2023-05-24T04:02:37;102028.84;;;7.73;90.08
74372;BME280;62885;51.374;6.170;2023-05-24T04:05:04;102016.66;;;7.67;90.34
74372;BME280;62885;51.374;6.170;2023-05-24T04:07:29;102012.72;;;7.76;90.05
74372;BME280;62885;51.374;6.170;2023-05-24T04:09:58;102011.72;;;7.78;89.51
74372;BME280;62885;51.374;6.170;2023-05-24T04:12:24;102010.53;;;7.86;89.90
74372;BME280;62885;51.374;6.170;2023-05-24T04:14:49;102009.84;;;7.80;89.50
74372;BME280;62885;51.374;6.170;2023-05-24T04:17:15;101997.09;;;7.87;89.48
74372;BME280;62885;51.374;6.170;2023-05-24T04:19:41;102008.44;;;7.92;88.42
74372;BME280;62885;51.374;6.170;2023-05-24T04:22:06;102004.94;;;7.92;88.88
74372;BME280;62885;51.374;6.170;2023-05-24T04:24:32;102015.91;;;8.04;88.57
74372;BME280;62885;51.374;6.170;2023-05-24T04:26:57;102018.81;;;8.18;87.56
74372;BME280;62885;51.374;6.170;2023-05-24T04:29:22;102017.81;;;8.41;86.61
74372;BME280;62885;51.374;6.170;2023-05-24T04:31:51;102018.19;;;8.71;85.63
74372;BME280;62885;51.374;6.170;2023-05-24T04:34:16;102007.97;;;8.98;83.54
74372;BME280;62885;51.374;6.170;2023-05-24T04:36:41;102010.03;;;9.10;82.73
74372;BME280;62885;51.374;6.170;2023-05-24T04:39:07;102010.69;;;9.15;82.42
74372;BME280;62885;51.374;6.170;2023-05-24T04:41:32;102016.47;;;9.42;82.18
74372;BME280;62885;51.374;6.170;2023-05-24T04:44:00;102025.13;;;9.64;80.75
74372;BME280;62885;51.374;6.170;2023-05-24T04:46:28;102016.63;;;9.73;80.72
74372;BME280;62885;51.374;6.170;2023-05-24T04:48:53;102022.94;;;9.89;79.63
74372;BME280;62885;51.374;6.170;2023-05-24T04:51:20;102027.66;;;10.19;78.36
74372;BME280;62885;51.374;6.170;2023-05-24T04:53:46;102019.19;;;10.26;78.23
74372;BME280;62885;51.374;6.170;2023-05-24T04:56:11;102020.88;;;10.45;77.34
74372;BME280;62885;51.374;6.170;2023-05-24T04:58:39;102028.09;;;10.60;76.68
74372;BME280;62885;51.374;6.170;2023-05-24T05:01:05;102025.22;;;10.79;75.80
74372;BME280;62885;51.374;6.170;2023-05-24T05:05:57;102025.59;;;11.04;74.55
74372;BME280;62885;51.374;6.170;2023-05-24T05:08:23;102031.19;;;11.15;74.14
74372;BME280;62885;51.374;6.170;2023-05-24T05:10:49;102034.91;;;11.28;74.12
74372;BME280;62885;51.374;6.170;2023-05-24T05:13:14;102032.56;;;11.38;73.51
74372;BME280;62885;51.374;6.170;2023-05-24T05:15:39;102037.72;;;11.57;72.54
74372;BME280;62885;51.374;6.170;2023-05-24T05:18:05;102039.41;;;11.73;70.78
74372;BME280;62885;51.374;6.170;2023-05-24T05:20:30;102040.44;;;11.86;71.60
74372;BME280;62885;51.374;6.170;2023-05-24T05:22:55;102038.22;;;11.47;72.53
74372;BME280;62885;51.374;6.170;2023-05-24T05:25:21;102041.72;;;11.34;73.24
74372;BME280;62885;51.374;6.170;2023-05-24T05:27:46;102047.28;;;10.84;75.65
74372;BME280;62885;51.374;6.170;2023-05-24T05:30:12;102045.31;;;10.39;78.36
74372;BME280;62885;51.374;6.170;2023-05-24T05:32:37;102039.22;;;10.52;78.18
74372;BME280;62885;51.374;6.170;2023-05-24T05:35:03;102050.47;;;10.59;77.74
74372;BME280;62885;51.374;6.170;2023-05-24T05:37:29;102041.28;;;10.47;78.15
74372;BME280;62885;51.374;6.170;2023-05-24T05:39:55;102040.50;;;10.45;78.64
74372;BME280;62885;51.374;6.170;2023-05-24T05:42:20;102041.31;;;10.13;80.65
74372;BME280;62885;51.374;6.170;2023-05-24T05:44:46;102044.63;;;10.01;81.45
74372;BME280;62885;51.374;6.170;2023-05-24T05:47:11;102040.88;;;10.38;80.00
74372;BME280;62885;51.374;6.170;2023-05-24T05:49:37;102041.88;;;10.52;79.25
74372;BME280;62885;51.374;6.170;2023-05-24T05:52:03;102040.28;;;10.33;80.38
74372;BME280;62885;51.374;6.170;2023-05-24T05:54:29;102044.16;;;10.27;80.37
74372;BME280;62885;51.374;6.170;2023-05-24T05:56:55;102043.69;;;9.84;82.92
74372;BME280;62885;51.374;6.170;2023-05-24T05:59:21;102042.25;;;10.12;82.25
74372;BME280;62885;51.374;6.170;2023-05-24T06:01:46;102040.56;;;10.44;80.90
74372;BME280;62885;51.374;6.170;2023-05-24T06:04:15;102049.13;;;10.50;80.90
74372;BME280;62885;51.374;6.170;2023-05-24T06:06:41;102045.72;;;10.80;79.80
74372;BME280;62885;51.374;6.170;2023-05-24T06:09:08;102042.44;;;11.22;79.00
74372;BME280;62885;51.374;6.170;2023-05-24T06:11:33;102041.56;;;11.67;75.14
74372;BME280;62885;51.374;6.170;2023-05-24T06:13:59;102035.63;;;11.91;73.96
74372;BME280;62885;51.374;6.170;2023-05-24T06:16:24;102041.66;;;13.49;68.51
74372;BME280;62885;51.374;6.170;2023-05-24T06:18:50;102047.00;;;12.53;71.10
74372;BME280;62885;51.374;6.170;2023-05-24T06:21:15;102048.84;;;11.94;73.13
74372;BME280;62885;51.374;6.170;2023-05-24T06:23:41;102048.25;;;12.05;74.08
74372;BME280;62885;51.374;6.170;2023-05-24T06:26:07;102050.00;;;12.34;72.14
74372;BME280;62885;51.374;6.170;2023-05-24T06:28:34;102044.13;;;12.56;70.82
74372;BME280;62885;51.374;6.170;2023-05-24T06:31:00;102041.06;;;12.34;71.11
74372;BME280;62885;51.374;6.170;2023-05-24T06:33:25;102048.38;;;11.88;73.43
74372;BME280;62885;51.374;6.170;2023-05-24T06:35:51;102036.81;;;12.02;73.48
74372;BME280;62885;51.374;6.170;2023-05-24T06:38:19;102051.59;;;12.09;73.70
74372;BME280;62885;51.374;6.170;2023-05-24T06:40:45;102054.19;;;12.10;73.66
74372;BME280;62885;51.374;6.170;2023-05-24T06:43:10;102059.75;;;12.21;73.27
74372;BME280;62885;51.374;6.170;2023-05-24T06:45:35;102075.06;;;12.05;73.84
74372;BME280;62885;51.374;6.170;2023-05-24T06:48:01;102076.16;;;11.71;76.92
74372;BME280;62885;51.374;6.170;2023-05-24T06:50:27;102079.53;;;10.98;80.95
74372;BME280;62885;51.374;6.170;2023-05-24T06:52:52;102089.84;;;11.05;81.70
74372;BME280;62885;51.374;6.170;2023-05-24T06:55:18;102081.34;;;11.29;79.61
74372;BME280;62885;51.374;6.170;2023-05-24T06:57:43;102092.69;;;11.18;80.41
74372;BME280;62885;51.374;6.170;2023-05-24T07:00:09;102095.31;;;10.71;82.97
74372;BME280;62885;51.374;6.170;2023-05-24T07:02:37;102089.53;;;10.79;82.54
74372;BME280;62885;51.374;6.170;2023-05-24T07:05:03;102091.72;;;10.55;83.35
74372;BME280;62885;51.374;6.170;2023-05-24T07:07:29;102076.31;;;10.91;83.48
74372;BME280;62885;51.374;6.170;2023-05-24T07:09:54;102077.78;;;11.44;80.60
74372;BME280;62885;51.374;6.170;2023-05-24T07:12:19;102070.88;;;11.24;80.44
74372;BME280;62885;51.374;6.170;2023-05-24T07:14:45;102082.91;;;11.17;80.50
74372;BME280;62885;51.374;6.170;2023-05-24T07:17:10;102073.16;;;11.77;79.35
74372;BME280;62885;51.374;6.170;2023-05-24T07:19:36;102074.44;;;12.16;77.78
74372;BME280;62885;51.374;6.170;2023-05-24T07:22:01;102079.41;;;12.36;76.43
74372;BME280;62885;51.374;6.170;2023-05-24T07:24:27;102071.66;;;12.31;76.72
74372;BME280;62885;51.374;6.170;2023-05-24T07:26:52;102069.94;;;12.45;76.18
74372;BME280;62885;51.374;6.170;2023-05-24T07:29:18;102072.94;;;12.40;77.00
74372;BME280;62885;51.374;6.170;2023-05-24T07:31:44;102070.81;;;12.73;75.82
74372;BME280;62885;51.374;6.170;2023-05-24T07:34:09;102067.13;;;12.89;75.19
74372;BME280;62885;51.374;6.170;2023-05-24T07:36:34;102070.22;;;12.83;74.97
74372;BME280;62885;51.374;6.170;2023-05-24T07:39:01;102067.81;;;12.92;73.41
74372;BME280;62885;51.374;6.170;2023-05-24T07:41:28;102071.56;;;12.75;73.15
74372;BME280;62885;51.374;6.170;2023-05-24T07:43:54;102074.75;;;12.68;74.23
74372;BME280;62885;51.374;6.170;2023-05-24T07:46:19;102072.91;;;12.83;71.36
74372;BME280;62885;51.374;6.170;2023-05-24T07:48:45;102077.03;;;12.60;71.31
74372;BME280;62885;51.374;6.170;2023-05-24T07:51:10;102076.34;;;12.42;72.36
74372;BME280;62885;51.374;6.170;2023-05-24T07:53:36;102082.09;;;12.36;73.58
74372;BME280;62885;51.374;6.170;2023-05-24T07:56:02;102073.09;;;12.65;72.91
74372;BME280;62885;51.374;6.170;2023-05-24T07:58:27;102074.91;;;12.65;73.51
74372;BME280;62885;51.374;6.170;2023-05-24T08:00:53;102073.69;;;12.56;72.13
74372;BME280;62885;51.374;6.170;2023-05-24T08:03:19;102069.38;;;12.68;71.49
74372;BME280;62885;51.374;6.170;2023-05-24T08:05:45;102070.50;;;12.78;71.14
74372;BME280;62885;51.374;6.170;2023-05-24T08:08:10;102071.56;;;12.47;71.96
74372;BME280;62885;51.374;6.170;2023-05-24T08:10:36;102073.66;;;12.70;71.43
74372;BME280;62885;51.374;6.170;2023-05-24T08:13:02;102069.34;;;12.82;71.31
74372;BME280;62885;51.374;6.170;2023-05-24T08:15:28;102066.28;;;12.60;71.73
74372;BME280;62885;51.374;6.170;2023-05-24T08:17:54;102062.09;;;13.11;70.19
74372;BME280;62885;51.374;6.170;2023-05-24T08:20:21;102063.94;;;13.25;68.01
74372;BME280;62885;51.374;6.170;2023-05-24T08:22:46;102061.28;;;13.37;67.30
74372;BME280;62885;51.374;6.170;2023-05-24T08:25:14;102054.00;;;13.39;68.85
74372;BME280;62885;51.374;6.170;2023-05-24T08:27:40;102058.44;;;13.26;68.50
74372;BME280;62885;51.374;6.170;2023-05-24T08:30:06;102066.25;;;13.16;69.67
74372;BME280;62885;51.374;6.170;2023-05-24T08:32:32;102063.25;;;13.07;70.21
74372;BME280;62885;51.374;6.170;2023-05-24T08:34:58;102067.31;;;13.14;70.93
74372;BME280;62885;51.374;6.170;2023-05-24T08:37:23;102062.81;;;13.14;71.01
74372;BME280;62885;51.374;6.170;2023-05-24T08:39:48;102063.47;;;13.04;69.22
74372;BME280;62885;51.374;6.170;2023-05-24T08:42:14;102063.75;;;13.13;69.52
74372;BME280;62885;51.374;6.170;2023-05-24T08:44:47;102067.97;;;13.18;68.62
74372;BME280;62885;51.374;6.170;2023-05-24T08:47:15;102067.41;;;13.12;69.08
74372;BME280;62885;51.374;6.170;2023-05-24T08:49:41;102062.91;;;13.13;69.34
74372;BME280;62885;51.374;6.170;2023-05-24T08:52:06;102060.97;;;13.15;69.58
74372;BME280;62885;51.374;6.170;2023-05-24T08:54:35;102059.03;;;13.17;68.89
74372;BME280;62885;51.374;6.170;2023-05-24T08:57:01;102061.69;;;13.31;69.05
74372;BME280;62885;51.374;6.170;2023-05-24T08:59:26;102071.19;;;13.37;68.90
74372;BME280;62885;51.374;6.170;2023-05-24T09:01:53;102058.63;;;13.23;68.94
74372;BME280;62885;51.374;6.170;2023-05-24T09:04:20;102062.50;;;13.46;68.57
74372;BME280;62885;51.374;6.170;2023-05-24T09:06:45;102060.97;;;13.42;68.16
74372;BME280;62885;51.374;6.170;2023-05-24T09:09:13;102055.41;;;13.45;67.30
74372;BME280;62885;51.374;6.170;2023-05-24T09:11:44;102058.22;;;13.29;67.29
74372;BME280;62885;51.374;6.170;2023-05-24T09:14:12;102055.84;;;13.51;66.62
74372;BME280;62885;51.374;6.170;2023-05-24T09:16:37;102049.13;;;13.71;65.74
74372;BME280;62885;51.374;6.170;2023-05-24T09:19:03;102045.09;;;14.04;65.00
74372;BME280;62885;51.374;6.170;2023-05-24T09:21:28;102043.19;;;14.18;65.17
74372;BME280;62885;51.374;6.170;2023-05-24T09:23:54;102039.63;;;14.18;64.35
74372;BME280;62885;51.374;6.170;2023-05-24T09:26:20;102040.38;;;14.07;63.39
74372;BME280;62885;51.374;6.170;2023-05-24T09:28:46;102036.72;;;14.08;63.69
74372;BME280;62885;51.374;6.170;2023-05-24T09:31:11;102037.16;;;14.15;63.06
74372;BME280;62885;51.374;6.170;2023-05-24T09:33:38;102032.41;;;14.18;63.30
74372;BME280;62885;51.374;6.170;2023-05-24T09:36:05;102034.19;;;13.92;64.71
74372;BME280;62885;51.374;6.170;2023-05-24T09:38:31;102037.03;;;13.91;64.41
74372;BME280;62885;51.374;6.170;2023-05-24T09:43:25;102035.06;;;13.93;63.94
74372;BME280;62885;51.374;6.170;2023-05-24T09:45:51;102035.94;;;13.93;64.30
74372;BME280;62885;51.374;6.170;2023-05-24T09:48:19;102037.97;;;13.90;64.30
74372;BME280;62885;51.374;6.170;2023-05-24T09:50:57;102039.16;;;13.86;63.54
74372;BME280;62885;51.374;6.170;2023-05-24T09:53:23;102032.66;;;13.76;62.31
74372;BME280;62885;51.374;6.170;2023-05-24T09:55:49;102032.50;;;14.04;61.82
74372;BME280;62885;51.374;6.170;2023-05-24T09:58:15;102023.53;;;14.04;61.85
74372;BME280;62885;51.374;6.170;2023-05-24T10:00:41;102031.00;;;14.13;60.55
74372;BME280;62885;51.374;6.170;2023-05-24T10:03:08;102029.81;;;14.29;60.31
74372;BME280;62885;51.374;6.170;2023-05-24T10:05:35;102021.16;;;13.86;58.40
74372;BME280;62885;51.374;6.170;2023-05-24T10:08:01;102036.59;;;13.97;58.45
74372;BME280;62885;51.374;6.170;2023-05-24T10:10:31;102032.66;;;13.76;59.22
74372;BME280;62885;51.374;6.170;2023-05-24T10:12:58;102028.38;;;13.73;59.63
74372;BME280;62885;51.374;6.170;2023-05-24T10:15:24;102031.72;;;13.89;60.17
74372;BME280;62885;51.374;6.170;2023-05-24T10:17:51;102030.50;;;13.81;58.59
74372;BME280;62885;51.374;6.170;2023-05-24T10:20:17;102035.81;;;13.82;59.44
74372;BME280;62885;51.374;6.170;2023-05-24T10:22:44;102033.13;;;13.82;58.91
74372;BME280;62885;51.374;6.170;2023-05-24T10:25:21;102043.88;;;13.82;59.60
74372;BME280;62885;51.374;6.170;2023-05-24T10:27:51;102044.69;;;14.22;58.73
74372;BME280;62885;51.374;6.170;2023-05-24T10:32:58;102038.44;;;14.34;58.64
74372;BME280;62885;51.374;6.170;2023-05-24T10:35:24;102042.41;;;14.16;59.04
74372;BME280;62885;51.374;6.170;2023-05-24T10:37:51;102036.84;;;14.32;58.82
74372;BME280;62885;51.374;6.170;2023-05-24T10:40:17;102038.34;;;14.61;57.62
74372;BME280;62885;51.374;6.170;2023-05-24T10:42:45;102041.56;;;14.79;56.64
74372;BME280;62885;51.374;6.170;2023-05-24T10:47:48;102038.28;;;14.87;57.16
74372;BME280;62885;51.374;6.170;2023-05-24T10:50:18;102029.00;;;15.14;55.10
74372;BME280;62885;51.374;6.170;2023-05-24T10:52:44;102032.72;;;15.37;54.72
74372;BME280;62885;51.374;6.170;2023-05-24T10:55:10;102026.00;;;15.43;53.25
74372;BME280;62885;51.374;6.170;2023-05-24T10:57:37;102025.22;;;14.93;54.10
74372;BME280;62885;51.374;6.170;2023-05-24T11:03:08;102022.03;;;15.12;54.35
74372;BME280;62885;51.374;6.170;2023-05-24T11:08:13;102017.22;;;15.28;53.41
74372;BME280;62885;51.374;6.170;2023-05-24T11:10:38;102026.63;;;15.23;52.32
74372;BME280;62885;51.374;6.170;2023-05-24T11:13:08;102026.94;;;14.94;52.51
74372;BME280;62885;51.374;6.170;2023-05-24T11:15:35;102018.63;;;14.97;52.59
74372;BME280;62885;51.374;6.170;2023-05-24T11:20:41;102008.34;;;15.50;53.01
74372;BME280;62885;51.374;6.170;2023-05-24T11:23:08;102010.91;;;15.64;53.16
74372;BME280;62885;51.374;6.170;2023-05-24T11:25:34;102011.38;;;15.58;52.95
74372;BME280;62885;51.374;6.170;2023-05-24T11:28:06;102004.19;;;15.81;53.14
74372;BME280;62885;51.374;6.170;2023-05-24T11:30:32;102004.56;;;15.76;52.60
74372;BME280;62885;51.374;6.170;2023-05-24T11:32:58;102001.13;;;15.85;53.36
74372;BME280;62885;51.374;6.170;2023-05-24T11:35:25;102010.94;;;15.75;54.36
74372;BME280;62885;51.374;6.170;2023-05-24T11:37:52;102000.88;;;15.77;53.23
74372;BME280;62885;51.374;6.170;2023-05-24T11:40:18;102013.44;;;15.54;52.41
74372;BME280;62885;51.374;6.170;2023-05-24T11:42:45;101998.63;;;15.36;53.08
74372;BME280;62885;51.374;6.170;2023-05-24T11:45:11;102001.06;;;15.63;53.59
74372;BME280;62885;51.374;6.170;2023-05-24T11:47:38;102004.28;;;15.68;52.01
74372;BME280;62885;51.374;6.170;2023-05-24T11:50:05;102010.66;;;15.67;52.90
74372;BME280;62885;51.374;6.170;2023-05-24T11:52:31;102013.88;;;15.48;52.25
74372;BME280;62885;51.374;6.170;2023-05-24T11:54:56;102003.31;;;15.69;51.99
74372;BME280;62885;51.374;6.170;2023-05-24T11:57:37;102003.63;;;15.99;53.88
74372;BME280;62885;51.374;6.170;2023-05-24T12:00:05;101997.72;;;15.83;54.42
74372;BME280;62885;51.374;6.170;2023-05-24T12:02:35;102004.47;;;15.89;53.10
74372;BME280;62885;51.374;6.170;2023-05-24T12:05:07;102005.50;;;15.64;53.48
74372;BME280;62885;51.374;6.170;2023-05-24T12:07:38;101995.34;;;15.79;53.46
74372;BME280;62885;51.374;6.170;2023-05-24T12:10:05;101995.09;;;15.71;53.53
74372;BME280;62885;51.374;6.170;2023-05-24T12:12:32;102001.56;;;15.68;54.60
74372;BME280;62885;51.374;6.170;2023-05-24T12:14:58;102002.03;;;15.62;54.62
74372;BME280;62885;51.374;6.170;2023-05-24T12:17:23;102000.31;;;15.61;53.83
74372;BME280;62885;51.374;6.170;2023-05-24T12:19:49;101992.00;;;15.64;52.54
74372;BME280;62885;51.374;6.170;2023-05-24T12:22:17;101990.63;;;16.05;52.40
74372;BME280;62885;51.374;6.170;2023-05-24T12:24:42;101983.38;;;15.94;51.56
74372;BME280;62885;51.374;6.170;2023-05-24T12:27:08;101986.78;;;15.85;50.84
74372;BME280;62885;51.374;6.170;2023-05-24T12:29:37;101975.03;;;16.19;50.07
74372;BME280;62885;51.374;6.170;2023-05-24T12:32:04;101980.97;;;16.35;50.29
74372;BME280;62885;51.374;6.170;2023-05-24T12:34:31;101978.00;;;16.27;51.10
74372;BME280;62885;51.374;6.170;2023-05-24T12:36:56;101979.34;;;16.22;52.18
74372;BME280;62885;51.374;6.170;2023-05-24T12:39:23;101986.22;;;16.26;52.74
74372;BME280;62885;51.374;6.170;2023-05-24T12:41:55;101986.97;;;16.17;51.85
74372;BME280;62885;51.374;6.170;2023-05-24T12:44:22;101975.50;;;15.91;51.62
74372;BME280;62885;51.374;6.170;2023-05-24T12:46:49;101976.50;;;16.01;51.90
74372;BME280;62885;51.374;6.170;2023-05-24T12:49:15;101977.19;;;15.81;53.49
74372;BME280;62885;51.374;6.170;2023-05-24T12:51:40;101972.03;;;15.78;54.58
74372;BME280;62885;51.374;6.170;2023-05-24T12:54:06;101979.59;;;15.61;55.92
74372;BME280;62885;51.374;6.170;2023-05-24T12:56:31;101986.22;;;15.57;55.13
74372;BME280;62885;51.374;6.170;2023-05-24T12:58:57;101995.66;;;15.39;55.70
74372;BME280;62885;51.374;6.170;2023-05-24T13:01:22;101984.47;;;15.33;56.02
74372;BME280;62885;51.374;6.170;2023-05-24T13:03:49;101986.63;;;15.16;56.21
74372;BME280;62885;51.374;6.170;2023-05-24T13:06:15;101984.03;;;15.15;56.23
74372;BME280;62885;51.374;6.170;2023-05-24T13:08:40;101994.69;;;15.16;56.03
74372;BME280;62885;51.374;6.170;2023-05-24T13:11:06;101991.03;;;15.17;56.03
74372;BME280;62885;51.374;6.170;2023-05-24T13:13:31;101991.69;;;15.08;55.69
74372;BME280;62885;51.374;6.170;2023-05-24T13:15:57;101990.97;;;15.06;56.29
74372;BME280;62885;51.374;6.170;2023-05-24T13:18:23;101994.66;;;15.05;56.48